Time;durP1;ratioP1;P1;durP2;ratioP2;P2;SDS_P1;SDS_P2;PMS_P1;PMS_P2;Temp;Humidity;BMP_temperature;BMP_pressure;BME280_temperature;BME280_humidity;BME280_pressure;Samples;Min_cycle;Max_cycle;Signal;HPM_P1;HPM_P2
2023/12/22 00:00:50;;;;;;;14.93;3.40;;;;;;;4.41;100.00;98632.78;5002740;28;20443;-85
2023/12/22 00:03:17;;;;;;;18.15;3.70;;;;;;;4.45;100.00;98633.59;5022372;28;20045;-83
2023/12/22 00:05:44;;;;;;;15.88;2.65;;;;;;;4.46;100.00;98628.41;5006465;28;20049;-85
2023/12/22 00:08:11;;;;;;;15.27;3.83;;;;;;;4.39;100.00;98618.16;4988689;28;20107;-83
2023/12/22 00:10:37;;;;;;;13.18;5.03;;;;;;;4.33;100.00;98620.84;4988382;28;20133;-85
2023/12/22 00:13:07;;;;;;;20.48;4.35;;;;;;;4.32;100.00;98619.16;5005309;28;20054;-84
2023/12/22 00:15:33;;;;;;;13.05;4.20;;;;;;;4.27;100.00;98622.66;4992008;28;20052;-83
2023/12/22 00:18:02;;;;;;;17.00;4.25;;;;;;;4.31;100.00;98628.66;4990531;28;20100;-85
2023/12/22 00:20:29;;;;;;;22.40;2.90;;;;;;;4.39;100.00;98631.09;5003606;28;20060;-85
2023/12/22 00:22:55;;;;;;;17.10;2.30;;;;;;;4.39;100.00;98629.34;4981054;28;20610;-84
2023/12/22 00:25:24;;;;;;;13.50;2.38;;;;;;;4.45;100.00;98633.59;4976324;28;20051;-86
2023/12/22 00:27:52;;;;;;;25.63;3.13;;;;;;;4.41;100.00;98637.97;5007892;28;20060;-83
2023/12/22 00:30:18;;;;;;;11.07;2.30;;;;;;;4.40;100.00;98633.66;4991531;28;20057;-85
2023/12/22 00:32:45;;;;;;;16.27;4.15;;;;;;;4.40;100.00;98631.06;5005989;28;20061;-84
2023/12/22 00:35:11;;;;;;;10.98;3.00;;;;;;;4.45;100.00;98638.78;4990383;28;20149;-84
2023/12/22 00:37:38;;;;;;;17.75;2.97;;;;;;;4.54;100.00;98659.34;5006896;28;20045;-83
2023/12/22 00:40:09;;;;;;;16.42;4.15;;;;;;;4.50;100.00;98654.25;4992988;28;20054;-84
2023/12/22 00:42:36;;;;;;;14.95;3.63;;;;;;;4.47;100.00;98662.91;5006227;28;20597;-84
2023/12/22 00:45:06;;;;;;;13.88;4.43;;;;;;;4.34;100.00;98651.94;5000971;28;20072;-83
2023/12/22 00:47:35;;;;;;;13.65;3.67;;;;;;;4.39;100.00;98651.84;5005706;28;20049;-84
2023/12/22 00:50:02;;;;;;;17.45;3.80;;;;;;;4.37;100.00;98658.75;5004769;28;20344;-84
2023/12/22 00:52:29;;;;;;;12.55;3.10;;;;;;;4.32;100.00;98666.63;5007168;28;20046;-84
2023/12/22 00:54:58;;;;;;;17.10;3.67;;;;;;;4.30;100.00;98656.28;4994071;28;20088;-83
2023/12/22 00:57:25;;;;;;;18.77;3.38;;;;;;;4.35;100.00;98668.31;5004558;28;20041;-85
2023/12/22 00:59:51;;;;;;;13.45;2.83;;;;;;;4.37;100.00;98659.63;4989584;28;20463;-83
2023/12/22 01:02:21;;;;;;;22.20;4.53;;;;;;;4.42;100.00;98673.38;5013939;28;20042;-84
2023/12/22 01:04:48;;;;;;;20.88;4.03;;;;;;;4.43;100.00;98682.00;4992053;28;20101;-84
2023/12/22 01:07:21;;;;;;;11.60;3.35;;;;;;;4.43;100.00;98692.34;4998826;28;20098;-83
2023/12/22 01:09:47;;;;;;;16.77;4.13;;;;;;;4.43;100.00;98685.44;4991897;28;20049;-84
2023/12/22 01:12:14;;;;;;;18.65;3.22;;;;;;;4.44;100.00;98687.13;5004471;28;20045;-85
2023/12/22 01:14:40;;;;;;;12.82;3.25;;;;;;;4.47;100.00;98691.41;4989572;28;20070;-84
2023/12/22 01:17:10;;;;;;;18.13;3.53;;;;;;;4.50;100.00;98695.69;4985320;28;20049;-84
2023/12/22 01:19:39;;;;;;;15.05;2.90;;;;;;;4.53;100.00;98682.72;5006301;28;20050;-84
2023/12/22 01:22:09;;;;;;;7.82;2.00;;;;;;;4.55;100.00;98681.81;4971362;28;20060;-84
2023/12/22 01:24:39;;;;;;;21.65;3.58;;;;;;;4.58;100.00;98701.63;4978445;28;20541;-84
2023/12/22 01:27:09;;;;;;;11.80;2.67;;;;;;;4.60;100.00;98703.31;4986095;28;20407;-83
2023/12/22 01:29:40;;;;;;;19.38;4.65;;;;;;;4.58;100.00;98691.28;4987236;28;20054;-83
2023/12/22 01:32:07;;;;;;;14.27;2.78;;;;;;;4.60;100.00;98695.53;4982167;28;20050;-83
2023/12/22 01:34:34;;;;;;;11.32;2.65;;;;;;;4.56;100.00;98687.84;4999616;28;20042;-84
2023/12/22 01:37:01;;;;;;;13.05;2.90;;;;;;;4.53;100.00;98683.56;4971783;28;20499;-84
2023/12/22 01:39:28;;;;;;;13.75;3.08;;;;;;;4.46;100.00;98700.09;4978317;28;20048;-84
2023/12/22 01:41:55;;;;;;;14.48;3.00;;;;;;;4.42;100.00;98680.28;5005417;28;20050;-84
2023/12/22 01:44:22;;;;;;;10.65;3.08;;;;;;;4.19;100.00;98706.53;5001909;28;20131;-84
2023/12/22 01:46:50;;;;;;;14.98;4.93;;;;;;;4.02;100.00;98712.81;4974015;28;20046;-83
2023/12/22 01:49:17;;;;;;;19.80;3.40;;;;;;;3.95;100.00;98722.38;4970907;28;20073;-83
2023/12/22 01:51:44;;;;;;;15.57;2.80;;;;;;;3.81;100.00;98727.72;4984094;28;20054;-84
2023/12/22 01:54:13;;;;;;;18.20;2.70;;;;;;;3.81;100.00;98721.72;4970983;28;20090;-84
2023/12/22 01:56:40;;;;;;;14.57;3.90;;;;;;;3.74;100.00;98714.88;4971040;28;20050;-84
2023/12/22 01:59:08;;;;;;;14.82;2.95;;;;;;;3.68;100.00;98707.19;4985875;28;20058;-84
2023/12/22 02:01:36;;;;;;;19.30;3.42;;;;;;;3.63;100.00;98702.94;4985092;28;20122;-84
2023/12/22 02:04:06;;;;;;;12.50;3.70;;;;;;;3.69;100.00;98706.31;4986544;28;20043;-84
2023/12/22 02:06:36;;;;;;;12.18;2.15;;;;;;;3.74;100.00;98705.41;4975724;28;20133;-84
2023/12/22 02:09:03;;;;;;;9.80;2.00;;;;;;;3.77;100.00;98707.94;4983585;28;20101;-84
2023/12/22 02:11:30;;;;;;;14.57;2.00;;;;;;;3.83;100.00;98717.34;5001714;28;20049;-83
2023/12/22 02:13:59;;;;;;;10.48;1.77;;;;;;;3.86;100.00;98693.16;4988662;28;20057;-84
2023/12/22 02:17:03;;;;;;;20.58;4.13;;;;;;;4.00;100.00;98682.63;4976808;28;20049;-83
2023/12/22 02:19:42;;;;;;;12.95;2.20;;;;;;;4.10;100.00;98697.16;4990222;28;20052;-83
2023/12/22 02:22:13;;;;;;;10.25;2.45;;;;;;;4.11;100.00;98701.47;4987299;28;20822;-83
2023/12/22 02:24:42;;;;;;;8.73;1.50;;;;;;;4.10;100.00;98700.59;4974830;28;20398;-84
2023/12/22 02:27:26;;;;;;;12.65;2.35;;;;;;;4.17;100.00;98698.78;4987503;28;20527;-84
2023/12/22 02:30:04;;;;;;;7.53;1.85;;;;;;;4.11;100.00;98714.41;4975489;28;20057;-85
2023/12/22 02:32:39;;;;;;;5.30;1.10;;;;;;;4.11;100.00;98733.38;4991046;28;20057;-83
2023/12/22 02:35:17;;;;;;;6.55;1.40;;;;;;;4.05;100.00;98712.75;4989573;28;20073;-85
2023/12/22 02:37:48;;;;;;;10.23;1.02;;;;;;;4.13;100.00;98723.88;4972015;28;20056;-84
2023/12/22 02:40:19;;;;;;;9.35;1.40;;;;;;;4.16;100.00;98722.09;4972976;28;20095;-84
2023/12/22 02:42:46;;;;;;;7.15;1.65;;;;;;;4.09;100.00;98729.09;4984383;28;20046;-85
2023/12/22 02:45:22;;;;;;;5.43;1.25;;;;;;;4.02;100.00;98735.25;4985265;28;20574;-86
2023/12/22 02:47:49;;;;;;;4.57;1.20;;;;;;;4.07;100.00;98729.13;4972885;28;20054;-84
2023/12/22 02:50:20;;;;;;;10.20;1.08;;;;;;;4.04;100.00;98725.72;4970124;28;20057;-83
2023/12/22 02:52:49;;;;;;;6.07;1.83;;;;;;;4.03;100.00;98718.81;4973653;28;20093;-83
2023/12/22 02:55:19;;;;;;;5.90;2.67;;;;;;;4.02;100.00;98723.16;4989363;28;20089;-84
2023/12/22 02:57:48;;;;;;;7.60;1.38;;;;;;;4.07;100.00;98717.94;4975880;28;20058;-83
2023/12/22 03:00:15;;;;;;;13.30;1.10;;;;;;;4.10;100.00;98715.28;4985939;28;20061;-83
2023/12/22 03:02:45;;;;;;;10.80;1.33;;;;;;;4.09;100.00;98706.69;4976929;28;20060;-85
2023/12/22 03:05:17;;;;;;;4.55;1.15;;;;;;;4.03;100.00;98713.66;4992001;28;20042;-83
2023/12/22 03:07:44;;;;;;;5.45;1.20;;;;;;;4.02;100.00;98704.19;4984770;28;20054;-83
2023/12/22 03:10:10;;;;;;;9.68;1.58;;;;;;;3.98;100.00;98701.63;4990678;28;20049;-83
2023/12/22 03:12:37;;;;;;;10.30;1.33;;;;;;;3.93;100.00;98692.22;5003083;28;20395;-84
2023/12/22 03:15:04;;;;;;;4.28;1.27;;;;;;;3.91;100.00;98699.13;4985742;28;20067;-84
2023/12/22 03:17:34;;;;;;;3.80;0.85;;;;;;;3.88;100.00;98696.59;4982631;28;20538;-84
2023/12/22 03:20:01;;;;;;;7.10;1.63;;;;;;;3.90;100.00;98703.47;4981952;28;20058;-83
2023/12/22 03:22:30;;;;;;;5.20;1.05;;;;;;;3.92;100.00;98709.47;4985972;28;20046;-84
2023/12/22 03:24:59;;;;;;;12.77;2.38;;;;;;;3.93;100.00;98703.41;4988934;28;20053;-84
2023/12/22 03:27:27;;;;;;;11.07;1.27;;;;;;;3.86;100.00;98714.75;4985616;28;20137;-84
2023/12/22 03:29:57;;;;;;;15.20;3.78;;;;;;;3.90;100.00;98703.47;4986371;28;20574;-84
2023/12/22 03:32:24;;;;;;;10.30;1.75;;;;;;;3.95;100.00;98700.81;4987061;28;20098;-84
2023/12/22 03:34:53;;;;;;;17.95;3.75;;;;;;;3.97;100.00;98710.25;4988467;28;20133;-85
2023/12/22 03:37:20;;;;;;;8.65;2.15;;;;;;;3.91;100.00;98704.31;4968383;28;20050;-85
2023/12/22 03:39:47;;;;;;;10.35;1.85;;;;;;;3.93;100.00;98702.56;4971354;28;20076;-83
2023/12/22 03:42:14;;;;;;;18.92;3.45;;;;;;;3.96;100.00;98711.16;4970056;28;20050;-84
2023/12/22 03:44:40;;;;;;;9.27;2.50;;;;;;;4.02;100.00;98706.78;4973265;28;20130;-84
2023/12/22 03:47:07;;;;;;;10.60;1.85;;;;;;;3.97;100.00;98704.25;4970275;28;20042;-83
2023/12/22 03:49:36;;;;;;;16.17;2.55;;;;;;;3.90;100.00;98694.88;4965828;28;20762;-83
2023/12/22 03:52:03;;;;;;;8.63;2.30;;;;;;;3.89;100.00;98693.16;4983834;28;20060;-84
2023/12/22 03:54:29;;;;;;;13.20;3.28;;;;;;;3.83;100.00;98681.13;4967579;28;20044;-83
2023/12/22 03:56:56;;;;;;;20.30;2.88;;;;;;;3.79;100.00;98693.28;4971474;28;20060;-84
2023/12/22 03:59:23;;;;;;;12.25;2.60;;;;;;;3.86;100.00;98696.63;5001852;28;20061;-84
2023/12/22 04:02:04;;;;;;;17.10;3.13;;;;;;;3.93;100.00;98707.75;4973574;28;20065;-84
2023/12/22 04:04:31;;;;;;;9.00;2.10;;;;;;;3.79;100.00;98689.81;4988522;28;20046;-84
2023/12/22 04:07:01;;;;;;;6.65;2.00;;;;;;;3.66;100.00;98686.50;4979686;28;20061;-83
2023/12/22 04:09:27;;;;;;;3.67;1.48;;;;;;;3.51;100.00;98691.88;4966964;28;20049;-86
2023/12/22 04:11:54;;;;;;;5.03;1.25;;;;;;;3.45;100.00;98691.06;4986478;28;20056;-83
2023/12/22 04:14:23;;;;;;;11.85;1.88;;;;;;;3.38;100.00;98686.84;4984233;28;20133;-83
2023/12/22 04:16:52;;;;;;;18.88;3.80;;;;;;;3.39;100.00;98693.75;4986886;28;20065;-84
2023/12/22 04:19:19;;;;;;;14.38;2.63;;;;;;;3.43;100.00;98681.66;5000805;28;20045;-82
2023/12/22 04:21:46;;;;;;;10.20;2.22;;;;;;;3.52;100.00;98685.84;4981049;28;20045;-83
2023/12/22 04:24:12;;;;;;;12.95;2.40;;;;;;;3.56;100.00;98687.50;4986191;28;20046;-83
2023/12/22 04:26:39;;;;;;;12.30;3.05;;;;;;;3.67;100.00;98689.97;4990534;28;20646;-84
2023/12/22 04:29:06;;;;;;;20.52;4.22;;;;;;;3.72;100.00;98695.94;4990133;28;20945;-84
2023/12/22 04:31:32;;;;;;;19.77;3.17;;;;;;;3.80;100.00;98684.59;4993304;28;20042;-85
2023/12/22 04:33:59;;;;;;;20.73;3.38;;;;;;;3.79;100.00;98694.97;4983872;28;20413;-85
2023/12/22 04:36:25;;;;;;;15.23;2.47;;;;;;;3.83;100.00;98706.16;4993518;28;20056;-86
2023/12/22 04:38:52;;;;;;;17.95;3.67;;;;;;;3.87;100.00;98698.34;4974749;28;20057;-85
2023/12/22 04:41:18;;;;;;;14.65;2.45;;;;;;;3.85;100.00;98696.66;4973007;28;20164;-85
2023/12/22 04:43:48;;;;;;;13.70;4.18;;;;;;;3.88;100.00;98694.00;4993973;28;20081;-84
2023/12/22 04:46:16;;;;;;;10.75;2.20;;;;;;;3.83;100.00;98714.78;4992193;28;20085;-85
2023/12/22 04:48:43;;;;;;;25.60;3.15;;;;;;;3.74;100.00;98720.06;4991017;28;20105;-83
2023/12/22 04:51:10;;;;;;;13.60;3.17;;;;;;;3.64;100.00;98704.66;4989427;28;20056;-84
2023/12/22 04:53:39;;;;;;;11.13;2.88;;;;;;;3.29;100.00;98697.31;4989975;28;20038;-83
2023/12/22 04:56:06;;;;;;;13.15;2.70;;;;;;;3.19;100.00;98721.56;4972192;28;20093;-84
2023/12/22 04:58:35;;;;;;;14.65;3.70;;;;;;;3.10;100.00;98710.44;4985980;28;20046;-84
2023/12/22 05:01:02;;;;;;;13.40;2.72;;;;;;;3.22;100.00;98717.22;5003875;28;20520;-82
2023/12/22 05:03:29;;;;;;;11.57;2.75;;;;;;;3.30;100.00;98732.66;5006300;28;20365;-85
2023/12/22 05:05:55;;;;;;;23.73;3.78;;;;;;;3.34;100.00;98694.66;5008755;28;20049;-83
2023/12/22 05:08:22;;;;;;;13.63;2.83;;;;;;;3.39;100.00;98711.84;5028258;28;20100;-83
2023/12/22 05:10:49;;;;;;;11.68;2.60;;;;;;;3.48;100.00;98724.69;4994058;28;20037;-84
2023/12/22 05:13:18;;;;;;;18.85;3.80;;;;;;;3.55;100.00;98706.50;5009276;28;20140;-84
2023/12/22 05:15:46;;;;;;;19.63;3.08;;;;;;;3.62;100.00;98693.50;4989170;28;20147;-83
2023/12/22 05:18:13;;;;;;;15.13;3.22;;;;;;;3.67;100.00;98692.56;5009500;28;20081;-82
2023/12/22 05:20:43;;;;;;;17.40;5.20;;;;;;;3.76;100.00;98706.22;5006777;28;20053;-83
2023/12/22 05:23:10;;;;;;;12.55;2.72;;;;;;;3.84;100.00;98698.38;4993885;28;20049;-83
2023/12/22 05:25:37;;;;;;;18.23;3.28;;;;;;;3.89;100.00;98699.16;4990820;28;20780;-83
2023/12/22 05:28:04;;;;;;;10.25;3.08;;;;;;;3.91;100.00;98701.72;5006929;28;20045;-84
2023/12/22 05:30:30;;;;;;;10.07;2.47;;;;;;;3.94;100.00;98691.34;4992934;28;20046;-82
2023/12/22 05:33:04;;;;;;;;;;;;;;;4.05;100.00;98697.22;5009241;28;20511;-84
2023/12/22 05:35:31;;;;;;;8.63;2.35;;;;;;;4.00;100.00;98683.47;5005129;28;19925;-85
2023/12/22 05:37:57;;;;;;;13.63;2.70;;;;;;;3.91;100.00;98714.66;5009971;28;20103;-84
2023/12/22 05:40:24;;;;;;;15.90;3.92;;;;;;;3.93;100.00;98713.78;5007382;28;20068;-83
2023/12/22 05:42:53;;;;;;;17.20;2.42;;;;;;;3.93;100.00;98718.94;4992554;28;20113;-83
2023/12/22 05:45:20;;;;;;;19.17;4.85;;;;;;;3.93;100.00;98700.84;4993139;28;20045;-83
2023/12/22 05:47:46;;;;;;;12.70;2.67;;;;;;;3.88;100.00;98709.53;4989360;28;20042;-84
2023/12/22 05:50:13;;;;;;;13.43;2.80;;;;;;;3.89;100.00;98722.47;4994284;28;20132;-84
2023/12/22 05:52:40;;;;;;;18.15;2.92;;;;;;;3.92;100.00;98725.00;5002918;28;20050;-84
2023/12/22 05:55:08;;;;;;;15.07;3.40;;;;;;;4.00;100.00;98718.88;5011155;28;20053;-83
2023/12/22 05:57:35;;;;;;;11.32;3.03;;;;;;;4.09;100.00;98726.53;5007931;28;20132;-85
2023/12/22 06:00:09;;;;;;;11.63;2.78;;;;;;;4.14;100.00;98702.25;5007513;28;20169;-83
2023/12/22 06:02:36;;;;;;;9.98;2.50;;;;;;;4.21;100.00;98718.59;4996835;28;20055;-84
2023/12/22 06:05:03;;;;;;;11.30;2.58;;;;;;;4.25;100.00;98725.44;5009086;28;20051;-85
2023/12/22 06:07:29;;;;;;;9.05;2.53;;;;;;;4.32;100.00;98746.06;4991136;28;20111;-85
2023/12/22 06:09:56;;;;;;;13.00;2.92;;;;;;;4.34;100.00;98726.16;5007856;28;20061;-85
2023/12/22 06:12:23;;;;;;;12.75;2.65;;;;;;;4.37;100.00;98727.00;5013191;28;20049;-83
2023/12/22 06:14:50;;;;;;;7.68;2.10;;;;;;;4.38;100.00;98743.38;5006521;28;20045;-84
2023/12/22 06:17:17;;;;;;;11.43;2.65;;;;;;;4.42;100.00;98734.69;5007749;28;20471;-84
2023/12/22 06:19:44;;;;;;;8.93;1.92;;;;;;;4.40;100.00;98741.63;4990212;28;20042;-84
2023/12/22 06:22:11;;;;;;;7.45;1.98;;;;;;;4.30;100.00;98739.19;4993865;28;20054;-84
2023/12/22 06:24:37;;;;;;;6.15;1.13;;;;;;;4.32;100.00;98814.28;5007993;28;20069;-83
2023/12/22 06:27:06;;;;;;;7.38;1.42;;;;;;;3.82;100.00;98832.13;5008868;28;20060;-82
2023/12/22 06:29:35;;;;;;;5.90;0.80;;;;;;;3.19;100.00;98812.91;4989892;28;20099;-83
2023/12/22 06:32:02;;;;;;;2.67;0.57;;;;;;;2.90;100.00;98774.38;5008154;28;20057;-84
2023/12/22 06:34:29;;;;;;;2.22;0.85;;;;;;;2.70;100.00;98790.91;4990275;28;20406;-82
2023/12/22 06:36:55;;;;;;;4.50;1.08;;;;;;;2.62;100.00;98806.44;5007884;28;20096;-83
2023/12/22 06:39:25;;;;;;;5.93;0.85;;;;;;;2.73;100.00;98828.78;5024335;28;20049;-84
2023/12/22 06:41:52;;;;;;;4.03;0.52;;;;;;;2.74;100.00;98820.16;5009338;28;20049;-85
2023/12/22 06:44:18;;;;;;;4.88;1.20;;;;;;;2.67;100.00;98836.56;5022323;28;20033;-83
2023/12/22 06:46:48;;;;;;;2.20;0.40;;;;;;;2.61;100.00;98843.47;5011415;28;20045;-82
2023/12/22 06:49:15;;;;;;;7.40;1.10;;;;;;;2.51;100.00;98823.72;5009753;28;20094;-84
2023/12/22 06:54:22;;;;;;;1.50;0.80;;;;;;;2.57;100.00;98838.31;5007618;28;20609;-85
2023/12/22 06:56:49;;;;;;;2.55;0.20;;;;;;;2.58;100.00;98848.66;5008866;28;20068;-84
2023/12/22 06:59:18;;;;;;;0.55;0.40;;;;;;;2.68;100.00;98844.28;5007699;28;20131;-82
2023/12/22 07:01:44;;;;;;;1.30;0.30;;;;;;;2.74;100.00;98856.34;5005550;28;20140;-82
2023/12/22 07:04:11;;;;;;;2.80;0.43;;;;;;;2.82;100.00;98862.28;5005276;28;20061;-85
2023/12/22 07:06:38;;;;;;;0.75;0.30;;;;;;;2.81;100.00;98852.81;5006575;28;20045;-85
2023/12/22 07:09:12;;;;;;;1.95;0.50;;;;;;;2.87;100.00;98857.09;5005613;28;20337;-84
2023/12/22 07:11:46;;;;;;;5.18;0.75;;;;;;;2.89;100.00;98843.28;5004544;28;20121;-82
2023/12/22 07:14:13;;;;;;;4.03;1.25;;;;;;;2.94;100.00;98836.34;5005840;28;20091;-83
2023/12/22 07:16:41;;;;;;;8.38;1.60;;;;;;;3.01;100.00;98833.72;5017998;28;20078;-84
2023/12/22 07:19:09;;;;;;;16.08;1.83;;;;;;;3.08;100.00;98810.41;4991725;28;20136;-84
2023/12/22 07:21:40;;;;;;;17.55;4.18;;;;;;;3.26;100.00;98831.78;5004749;28;20080;-84
2023/12/22 07:24:07;;;;;;;15.05;2.78;;;;;;;3.41;100.00;98844.59;4986924;28;20506;-84
2023/12/22 07:26:35;;;;;;;11.35;2.97;;;;;;;3.51;100.00;98816.94;4999970;28;20065;-85
2023/12/22 07:29:01;;;;;;;20.27;4.05;;;;;;;3.62;100.00;98858.22;5002970;28;20593;-83
2023/12/22 07:31:28;;;;;;;15.65;3.05;;;;;;;3.76;100.00;98871.88;4994030;28;20346;-84
2023/12/22 07:33:55;;;;;;;13.00;2.53;;;;;;;3.84;100.00;98855.41;5006202;28;20522;-85
2023/12/22 07:36:24;;;;;;;9.75;2.70;;;;;;;3.87;100.00;98860.53;5006279;28;20041;-85
2023/12/22 07:38:51;;;;;;;20.17;3.65;;;;;;;3.89;100.00;98885.53;5004960;28;20140;-84
2023/12/22 07:41:18;;;;;;;11.30;2.10;;;;;;;3.91;100.00;98872.56;5019876;28;20534;-86
2023/12/22 07:43:44;;;;;;;14.13;3.47;;;;;;;3.86;100.00;98870.06;5004495;28;20041;-84
2023/12/22 07:46:21;;;;;;;11.90;2.75;;;;;;;3.88;100.00;98877.81;4991868;28;20525;-86
2023/12/22 07:48:49;;;;;;;11.55;2.13;;;;;;;3.90;100.00;98887.25;4997058;28;20120;-83
2023/12/22 07:51:22;;;;;;;13.18;2.42;;;;;;;3.87;100.00;98887.31;4992827;28;20531;-85
2023/12/22 07:53:49;;;;;;;17.88;2.33;;;;;;;3.85;100.00;98888.19;5006786;28;20101;-81
2023/12/22 07:56:16;;;;;;;14.30;2.85;;;;;;;3.89;100.00;98908.00;5007204;28;20112;-80
2023/12/22 07:58:42;;;;;;;17.13;3.75;;;;;;;3.92;100.00;98907.94;5002411;28;20081;-83
2023/12/22 08:01:09;;;;;;;7.45;2.63;;;;;;;3.85;100.00;98920.09;5004640;28;20065;-85
2023/12/22 08:03:35;;;;;;;16.58;2.60;;;;;;;3.87;100.00;98914.91;5005233;28;20065;-83
2023/12/22 08:06:05;;;;;;;12.38;2.90;;;;;;;3.97;100.00;98901.84;4994033;28;20974;-85
2023/12/22 08:08:33;;;;;;;13.07;2.30;;;;;;;4.14;100.00;98893.91;5005006;28;20045;-82
2023/12/22 08:11:00;;;;;;;13.30;3.10;;;;;;;4.24;100.00;98917.97;5007021;28;20136;-83
2023/12/22 08:13:27;;;;;;;9.68;2.25;;;;;;;4.35;100.00;98928.19;5007634;28;20554;-84
2023/12/22 08:15:57;;;;;;;19.10;3.28;;;;;;;4.52;100.00;98911.59;5009110;28;20061;-85
2023/12/22 08:18:24;;;;;;;18.52;5.72;;;;;;;4.58;100.00;98929.69;5009415;28;20062;-83
2023/12/22 08:20:50;;;;;;;23.38;7.97;;;;;;;4.58;100.00;98929.69;5023684;28;20052;-82
2023/12/22 08:23:17;;;;;;;10.85;3.47;;;;;;;4.64;100.00;98934.75;5002585;28;20046;-85
2023/12/22 08:25:46;;;;;;;14.40;2.35;;;;;;;4.71;100.00;98926.03;5019017;28;20132;-82
2023/12/22 08:28:13;;;;;;;15.20;3.45;;;;;;;4.75;100.00;98922.53;5026924;28;20049;-83
2023/12/22 08:30:47;;;;;;;26.58;5.70;;;;;;;4.82;100.00;98932.84;5000633;28;20045;-82
2023/12/22 08:33:16;;;;;;;12.95;2.75;;;;;;;4.89;100.00;98939.63;4991759;28;20605;-84
2023/12/22 08:35:43;;;;;;;14.02;4.35;;;;;;;4.90;100.00;98921.47;5003880;28;20050;-86
2023/12/22 08:38:10;;;;;;;18.08;3.40;;;;;;;4.97;100.00;98933.47;5026927;28;20483;-83
2023/12/22 08:40:39;;;;;;;16.27;4.30;;;;;;;5.04;100.00;98938.56;5022802;28;20057;-85
2023/12/22 08:43:06;;;;;;;15.27;3.00;;;;;;;5.05;100.00;98941.16;4998222;28;20044;-84
2023/12/22 08:45:33;;;;;;;16.52;3.97;;;;;;;5.08;100.00;98943.69;5010572;28;20040;-85
2023/12/22 08:48:00;;;;;;;16.00;3.15;;;;;;;5.20;100.00;98929.72;5010714;28;20057;-85
2023/12/22 08:50:27;;;;;;;9.35;3.28;;;;;;;5.30;100.00;98959.78;5030437;28;20048;-85
2023/12/22 08:52:53;;;;;;;14.43;4.13;;;;;;;4.99;100.00;98942.97;5008626;28;20489;-84
2023/12/22 08:55:20;;;;;;;18.98;2.85;;;;;;;4.63;100.00;98961.59;5005572;28;20045;-84
2023/12/22 08:57:47;;;;;;;9.48;2.47;;;;;;;4.62;100.00;98968.47;4996003;28;20048;-85
2023/12/22 09:00:14;;;;;;;22.02;3.97;;;;;;;4.69;100.00;98968.41;4991672;28;20049;-85
2023/12/22 09:02:42;;;;;;;17.38;3.40;;;;;;;4.79;100.00;98985.56;5011677;28;20108;-85
2023/12/22 09:05:08;;;;;;;14.80;2.95;;;;;;;4.86;100.00;98975.97;5011468;28;20109;-84
2023/12/22 09:07:35;;;;;;;12.05;2.80;;;;;;;4.95;100.00;98973.25;5007693;28;20067;-85
2023/12/22 09:10:03;;;;;;;11.43;3.58;;;;;;;4.95;100.00;98956.00;4986554;28;20038;-82
2023/12/22 09:12:32;;;;;;;13.07;2.72;;;;;;;5.03;100.00;98949.81;5006782;28;20049;-84
2023/12/22 09:14:58;;;;;;;18.58;3.90;;;;;;;5.17;100.00;98967.78;5008651;28;20088;-83
2023/12/22 09:17:29;;;;;;;12.82;2.95;;;;;;;5.37;100.00;98968.38;5009958;28;20052;-84
2023/12/22 09:19:56;;;;;;;12.70;2.70;;;;;;;5.44;100.00;98972.56;4996170;28;20073;-82
2023/12/22 09:22:23;;;;;;;16.85;3.97;;;;;;;5.53;100.00;98978.50;5007355;28;20057;-85
2023/12/22 09:24:50;;;;;;;9.98;2.20;;;;;;;5.62;100.00;98968.00;5007439;28;20092;-84
2023/12/22 09:27:16;;;;;;;13.55;2.95;;;;;;;5.67;100.00;98958.41;5006674;28;20704;-84
2023/12/22 09:29:43;;;;;;;10.98;2.20;;;;;;;5.69;100.00;98981.72;4991061;28;20073;-84
2023/12/22 09:32:10;;;;;;;13.77;2.88;;;;;;;5.66;100.00;98954.06;4991293;28;20104;-84
2023/12/22 09:34:36;;;;;;;8.25;2.58;;;;;;;5.75;100.00;98961.72;5008804;28;20053;-84
2023/12/22 09:37:03;;;;;;;15.88;2.35;;;;;;;5.79;100.00;98954.72;5012937;28;20407;-83
2023/12/22 09:39:30;;;;;;;15.05;2.17;;;;;;;5.96;100.00;98944.91;5006482;28;20242;-82
2023/12/22 09:41:56;;;;;;;7.80;2.15;;;;;;;5.99;99.63;98950.97;5006357;28;20045;-82
2023/12/22 09:44:24;;;;;;;18.90;5.60;;;;;;;5.79;97.12;98933.97;5014616;28;20121;-81
2023/12/22 09:46:52;;;;;;;10.80;2.28;;;;;;;5.73;97.29;98939.25;5009128;28;20045;-82
2023/12/22 09:49:23;;;;;;;8.30;1.85;;;;;;;5.61;97.16;98932.53;5009386;28;20077;-81
2023/12/22 09:51:51;;;;;;;5.78;1.17;;;;;;;5.55;96.35;98943.00;5006732;28;20120;-83
2023/12/22 09:54:19;;;;;;;7.45;2.25;;;;;;;5.51;96.67;98934.41;4992588;28;20041;-81
2023/12/22 09:56:51;;;;;;;9.63;1.65;;;;;;;5.53;96.24;98956.00;4988192;28;20037;-82
2023/12/22 09:59:18;;;;;;;2.53;0.95;;;;;;;5.56;96.99;98949.91;4990523;28;20104;-81
2023/12/22 10:01:46;;;;;;;10.82;1.55;;;;;;;5.54;97.22;98970.72;5017852;28;20406;-82
2023/12/22 10:04:17;;;;;;;2.22;1.00;;;;;;;5.62;98.15;98960.22;5008451;28;20042;-82
2023/12/22 10:06:48;;;;;;;1.92;1.30;;;;;;;5.61;98.72;98966.28;5006475;28;20499;-82
2023/12/22 10:09:17;;;;;;;6.15;1.25;;;;;;;5.60;99.93;98954.16;5004248;28;20052;-81
2023/12/22 10:11:45;;;;;;;11.60;1.40;;;;;;;5.50;100.00;98953.47;5001321;28;20535;-82
2023/12/22 10:14:13;;;;;;;7.32;2.05;;;;;;;5.52;100.00;98958.63;4990024;28;20045;-82
2023/12/22 10:16:41;;;;;;;8.30;2.65;;;;;;;5.44;100.00;98961.34;5004696;28;20057;-82
2023/12/22 10:19:12;;;;;;;7.40;1.40;;;;;;;5.40;100.00;98970.06;5004467;28;20049;-83
2023/12/22 10:21:38;;;;;;;12.10;2.20;;;;;;;5.29;100.00;98957.22;4988829;28;20137;-81
2023/12/22 10:24:05;;;;;;;14.15;1.58;;;;;;;5.20;100.00;98953.06;5004629;28;20050;-84
2023/12/22 10:26:32;;;;;;;9.10;1.65;;;;;;;5.12;100.00;98949.69;4991555;28;20045;-83
2023/12/22 10:28:58;;;;;;;10.15;2.15;;;;;;;5.06;100.00;98944.59;4991280;28;20052;-84
2023/12/22 10:31:26;;;;;;;8.80;1.77;;;;;;;4.95;100.00;98939.56;4987032;28;20418;-83
2023/12/22 10:33:52;;;;;;;13.13;2.58;;;;;;;4.94;100.00;98954.28;5006471;28;20049;-83
2023/12/22 10:36:21;;;;;;;4.50;1.08;;;;;;;4.94;100.00;98938.72;5005722;28;20428;-82
2023/12/22 10:38:48;;;;;;;9.55;2.00;;;;;;;4.90;100.00;98929.25;5019541;28;20086;-82
2023/12/22 10:41:14;;;;;;;7.63;2.78;;;;;;;4.91;100.00;98919.72;4997480;28;20080;-81
2023/12/22 10:43:42;;;;;;;9.63;2.63;;;;;;;4.85;100.00;98915.50;5005265;28;20141;-83
2023/12/22 10:46:10;;;;;;;17.73;2.67;;;;;;;4.85;100.00;98912.91;4992588;28;20060;-81
2023/12/22 10:48:40;;;;;;;9.60;2.00;;;;;;;4.91;100.00;98907.63;4992875;28;20056;-83
2023/12/22 10:51:11;;;;;;;9.93;2.70;;;;;;;4.99;100.00;98901.47;5005183;28;20045;-83
2023/12/22 10:53:43;;;;;;;6.55;2.05;;;;;;;4.98;100.00;98900.63;5009808;28;20056;-82
2023/12/22 10:56:11;;;;;;;13.85;3.28;;;;;;;5.03;100.00;98910.91;4996660;28;20591;-81
2023/12/22 10:58:45;;;;;;;;;;;;;;;5.07;100.00;98917.78;4989841;28;20144;-83
2023/12/22 11:01:15;;;;;;;13.93;2.00;;;;;;;5.11;100.00;98925.50;5007751;28;19976;-81
2023/12/22 11:03:46;;;;;;;20.75;6.22;;;;;;;5.03;100.00;98929.06;5008319;28;20049;-84
2023/12/22 11:06:15;;;;;;;13.55;2.63;;;;;;;5.10;100.00;98941.94;5008443;28;20073;-83
2023/12/22 11:08:44;;;;;;;9.23;2.40;;;;;;;5.13;100.00;98956.59;5007400;28;20045;-84
2023/12/22 11:11:29;;;;;;;18.63;3.13;;;;;;;5.04;100.00;98930.81;5008523;28;20100;-84
2023/12/22 11:13:58;;;;;;;15.48;3.63;;;;;;;5.12;100.00;98942.78;4990750;28;20061;-83
2023/12/22 11:16:25;;;;;;;19.40;3.58;;;;;;;5.09;100.00;98940.22;5004870;28;20041;-84
2023/12/22 11:18:56;;;;;;;10.55;2.55;;;;;;;5.27;100.00;98935.66;5006562;28;20056;-84
2023/12/22 11:21:27;;;;;;;16.70;3.33;;;;;;;5.40;100.00;98908.63;5021569;28;20076;-84
2023/12/22 11:23:54;;;;;;;10.00;2.83;;;;;;;5.55;100.00;98907.50;5005216;28;20096;-84
2023/12/22 11:26:26;;;;;;;14.40;2.70;;;;;;;5.67;100.00;98913.38;5010074;28;20140;-83
2023/12/22 11:28:53;;;;;;;14.13;2.65;;;;;;;5.80;100.00;98912.28;5006103;28;20046;-82
2023/12/22 11:31:20;;;;;;;6.90;2.38;;;;;;;5.83;100.00;98917.44;4991556;28;20407;-81
2023/12/22 11:33:49;;;;;;;16.77;3.78;;;;;;;5.80;100.00;98910.56;4995305;28;20042;-82
2023/12/22 11:36:17;;;;;;;9.68;2.80;;;;;;;5.80;100.00;98907.09;4988954;28;20045;-82